Time;durP1;ratioP1;P1;durP2;ratioP2;P2;SDS_P1;SDS_P2;PMS_P1;PMS_P2;Temp;Humidity;BMP_temperature;BMP_pressure;BME280_temperature;BME280_humidity;BME280_pressure;Samples;Min_cycle;Max_cycle;Signal;HPM_P1;HPM_P2
2023/06/29 00:01:07;;;;;;;5.47;3.65;;;17.80;99.90;;;;;;5037304;28;20398;-82
2023/06/29 00:03:33;;;;;;;3.60;3.30;;;17.80;99.90;;;;;;5033331;28;20435;-83
2023/06/29 00:05:59;;;;;;;3.90;3.22;;;17.70;99.90;;;;;;5052837;28;20385;-84
2023/06/29 00:08:26;;;;;;;3.90;3.60;;;17.60;99.90;;;;;;5053382;28;20389;-83
2023/06/29 00:10:52;;;;;;;4.03;3.47;;;17.60;99.90;;;;;;5054113;28;20447;-83
2023/06/29 00:13:19;;;;;;;3.53;3.13;;;17.60;99.90;;;;;;5056948;28;20381;-83
2023/06/29 00:15:45;;;;;;;3.22;2.92;;;17.70;99.90;;;;;;5038876;28;20478;-84
2023/06/29 00:18:13;;;;;;;4.57;3.50;;;17.60;99.90;;;;;;5039497;28;20512;-84
2023/06/29 00:20:42;;;;;;;4.07;3.22;;;17.50;99.90;;;;;;5057133;28;20947;-83
2023/06/29 00:23:07;;;;;;;3.78;3.47;;;17.60;99.90;;;;;;5049053;28;20384;-83
2023/06/29 00:25:34;;;;;;;5.00;3.30;;;17.60;99.90;;;;;;5057576;28;20562;-84
2023/06/29 00:27:59;;;;;;;5.00;3.40;;;17.50;99.90;;;;;;5072367;28;20917;-83
2023/06/29 00:30:26;;;;;;;4.30;3.13;;;17.50;99.90;;;;;;5038172;28;20385;-84
2023/06/29 00:32:51;;;;;;;4.03;3.30;;;17.50;99.90;;;;;;5056008;28;20894;-83
2023/06/29 00:35:17;;;;;;;4.50;3.43;;;17.50;99.90;;;;;;5038007;28;20405;-84
2023/06/29 00:37:42;;;;;;;4.80;3.40;;;17.40;99.90;;;;;;5038951;28;21019;-83
2023/06/29 00:40:09;;;;;;;4.53;3.20;;;17.40;99.90;;;;;;5056469;28;20381;-83
2023/06/29 00:42:35;;;;;;;5.40;3.17;;;17.40;99.90;;;;;;5055878;28;20389;-83
2023/06/29 00:45:02;;;;;;;3.80;3.40;;;17.40;99.90;;;;;;5075220;28;20419;-83
2023/06/29 00:47:29;;;;;;;5.18;3.50;;;17.30;99.90;;;;;;5074897;28;20811;-83
2023/06/29 00:49:55;;;;;;;4.30;3.40;;;17.40;99.90;;;;;;5075659;28;20380;-82
2023/06/29 00:52:22;;;;;;;4.40;3.15;;;17.20;99.90;;;;;;5075649;28;20398;-82
2023/06/29 00:54:48;;;;;;;4.50;3.30;;;17.20;99.90;;;;;;5075280;28;20431;-83
2023/06/29 00:57:13;;;;;;;3.50;3.20;;;17.20;99.90;;;;;;5056723;28;20480;-82
2023/06/29 00:59:39;;;;;;;5.22;3.42;;;17.20;99.90;;;;;;5073121;28;21035;-82
2023/06/29 01:02:05;;;;;;;4.23;3.70;;;17.10;99.90;;;;;;5037545;28;20381;-83
2023/06/29 01:04:33;;;;;;;4.80;3.75;;;17.10;99.90;;;;;;5055331;28;20382;-84
2023/06/29 01:07:08;;;;;;;5.32;4.00;;;16.90;99.90;;;;;;5036580;28;20810;-83
2023/06/29 01:09:35;;;;;;;4.10;3.40;;;17.00;99.90;;;;;;5036805;28;20443;-83
2023/06/29 01:12:02;;;;;;;4.63;3.47;;;17.00;99.90;;;;;;5055100;28;20423;-84
2023/06/29 01:14:32;;;;;;;5.43;3.55;;;17.00;99.90;;;;;;5055103;28;20864;-82
2023/06/29 01:16:59;;;;;;;3.80;3.40;;;16.90;99.90;;;;;;5053853;28;20413;-82
2023/06/29 01:19:30;;;;;;;3.78;3.20;;;17.00;99.90;;;;;;5065715;22;20502;-84
2023/06/29 01:22:16;;;;;;;4.57;3.60;;;16.80;99.90;;;;;;5081744;28;20380;-84
2023/06/29 01:24:42;;;;;;;6.50;3.60;;;16.90;99.90;;;;;;5081645;28;20445;-84
2023/06/29 01:27:08;;;;;;;4.70;4.28;;;17.00;99.90;;;;;;5080745;28;20372;-84
2023/06/29 01:29:33;;;;;;;5.60;3.30;;;17.00;99.90;;;;;;5054936;28;21051;-84
2023/06/29 01:32:03;;;;;;;3.83;3.40;;;16.90;99.90;;;;;;5043539;28;20389;-84
2023/06/29 01:34:31;;;;;;;4.43;3.70;;;16.90;99.90;;;;;;5039345;28;20553;-84
2023/06/29 01:37:04;;;;;;;4.00;3.50;;;17.00;99.90;;;;;;5039888;28;20483;-84
2023/06/29 01:39:37;;;;;;;3.65;3.35;;;16.70;99.90;;;;;;5039963;28;20383;-84
2023/06/29 01:42:04;;;;;;;4.43;3.47;;;16.80;99.90;;;;;;5024937;28;20387;-84
2023/06/29 01:44:29;;;;;;;3.50;3.20;;;16.80;99.90;;;;;;5046996;28;20404;-84
2023/06/29 01:46:56;;;;;;;3.60;3.30;;;16.80;99.90;;;;;;5040826;28;20899;-84
2023/06/29 01:49:22;;;;;;;5.70;3.50;;;16.80;99.90;;;;;;5042352;28;20830;-84
2023/06/29 01:51:48;;;;;;;4.10;3.17;;;16.80;99.90;;;;;;5043990;28;20409;-84
2023/06/29 01:54:13;;;;;;;4.10;3.70;;;16.80;99.90;;;;;;5055476;28;20438;-84
2023/06/29 01:56:39;;;;;;;3.72;3.30;;;16.80;99.90;;;;;;5059620;28;20458;-84
2023/06/29 01:59:04;;;;;;;3.87;3.50;;;16.80;99.90;;;;;;5081769;28;20534;-84
2023/06/29 02:01:30;;;;;;;4.00;3.60;;;16.90;99.90;;;;;;5079473;28;20410;-84
2023/06/29 02:03:55;;;;;;;3.65;3.25;;;16.80;99.90;;;;;;5062404;28;20412;-83
2023/06/29 02:06:21;;;;;;;4.60;3.43;;;16.90;99.90;;;;;;5045536;28;20393;-84
2023/06/29 02:08:47;;;;;;;4.13;3.50;;;16.90;99.90;;;;;;5044746;28;20755;-85
2023/06/29 02:11:13;;;;;;;4.20;3.45;;;16.90;99.90;;;;;;5044666;28;20403;-84
2023/06/29 02:13:39;;;;;;;3.67;3.20;;;17.00;99.90;;;;;;5058799;28;20593;-84
2023/06/29 02:16:04;;;;;;;3.50;3.20;;;16.90;99.90;;;;;;5063687;28;20398;-84
2023/06/29 02:18:31;;;;;;;4.45;3.20;;;17.00;99.90;;;;;;5062885;28;20384;-84
2023/06/29 02:20:56;;;;;;;3.60;3.30;;;16.90;99.90;;;;;;5071028;28;20607;-83
2023/06/29 02:23:22;;;;;;;4.03;3.60;;;16.90;99.90;;;;;;5043266;28;20448;-84
2023/06/29 02:25:47;;;;;;;3.80;3.40;;;16.80;99.90;;;;;;5042265;28;20942;-84
2023/06/29 02:28:13;;;;;;;3.57;3.27;;;16.90;99.90;;;;;;5060705;28;20901;-84
2023/06/29 02:30:38;;;;;;;3.78;3.47;;;16.90;99.90;;;;;;5061293;28;20504;-84
2023/06/29 02:33:04;;;;;;;3.40;3.10;;;16.80;99.90;;;;;;5047963;28;20408;-84
2023/06/29 02:35:29;;;;;;;3.60;3.30;;;17.00;99.90;;;;;;5078923;28;20399;-84
2023/06/29 02:37:55;;;;;;;3.70;3.20;;;17.00;99.90;;;;;;5061697;28;20385;-84
2023/06/29 02:40:20;;;;;;;3.70;3.40;;;17.00;99.90;;;;;;5078914;28;20376;-84
2023/06/29 02:42:46;;;;;;;4.28;3.00;;;16.90;99.90;;;;;;5059325;28;20743;-84
2023/06/29 02:45:11;;;;;;;3.63;3.33;;;16.90;99.90;;;;;;5045609;28;20956;-84
2023/06/29 02:47:37;;;;;;;3.70;2.93;;;17.00;99.90;;;;;;5078486;28;20379;-84
2023/06/29 02:50:02;;;;;;;3.95;3.30;;;17.00;99.90;;;;;;5060898;28;20399;-83
2023/06/29 02:52:28;;;;;;;3.60;3.30;;;17.00;99.90;;;;;;5042976;28;20389;-84
2023/06/29 02:54:53;;;;;;;3.87;3.13;;;17.00;99.90;;;;;;5040166;28;20480;-83
2023/06/29 02:57:19;;;;;;;4.45;3.13;;;17.00;99.90;;;;;;5057668;28;20444;-84
2023/06/29 02:59:44;;;;;;;3.50;3.10;;;17.00;99.90;;;;;;5039832;28;20449;-84
2023/06/29 03:02:10;;;;;;;3.70;3.20;;;16.90;99.90;;;;;;5057995;28;20488;-84
2023/06/29 03:04:35;;;;;;;4.07;3.10;;;16.90;99.90;;;;;;5056356;28;20381;-83
2023/06/29 03:07:01;;;;;;;4.00;3.50;;;16.90;99.90;;;;;;5036930;28;20381;-84
2023/06/29 03:09:26;;;;;;;4.78;3.60;;;16.90;99.90;;;;;;5051960;28;20420;-86
2023/06/29 03:11:52;;;;;;;4.20;3.50;;;16.90;99.90;;;;;;5048712;28;20384;-84
2023/06/29 03:14:17;;;;;;;5.75;3.10;;;16.80;99.90;;;;;;5039003;28;20426;-84
2023/06/29 03:16:43;;;;;;;3.60;3.30;;;17.60;99.90;;;;;;5037726;28;20405;-83
2023/06/29 03:19:08;;;;;;;4.33;3.50;;;16.70;99.90;;;;;;5056429;28;20898;-83
2023/06/29 03:21:34;;;;;;;3.83;3.42;;;16.80;99.90;;;;;;5065575;28;20384;-84
2023/06/29 03:23:59;;;;;;;3.70;3.20;;;16.80;99.90;;;;;;5058716;28;20419;-84
2023/06/29 03:26:25;;;;;;;3.90;3.50;;;16.80;99.90;;;;;;5075393;28;20872;-84
2023/06/29 03:28:50;;;;;;;3.22;3.03;;;16.80;99.90;;;;;;5075299;28;20415;-84
2023/06/29 03:31:16;;;;;;;4.97;3.60;;;16.70;99.90;;;;;;5056106;28;20387;-84
2023/06/29 03:33:43;;;;;;;5.53;3.60;;;16.70;99.90;;;;;;5057502;28;20387;-84
2023/06/29 03:36:11;;;;;;;4.10;3.10;;;16.80;99.90;;;;;;5055732;28;20407;-84
2023/06/29 03:38:36;;;;;;;3.85;3.55;;;16.80;99.90;;;;;;5051127;28;20398;-84
2023/06/29 03:41:02;;;;;;;3.13;2.90;;;16.70;99.90;;;;;;5055328;28;20511;-84
2023/06/29 03:43:27;;;;;;;4.60;3.70;;;16.60;99.90;;;;;;5056988;28;20389;-84
2023/06/29 03:45:53;;;;;;;3.63;3.20;;;16.60;99.90;;;;;;5057603;28;20385;-84
2023/06/29 03:48:20;;;;;;;3.92;3.55;;;16.60;99.90;;;;;;5061816;28;20397;-84
2023/06/29 03:50:46;;;;;;;3.60;3.30;;;16.60;99.90;;;;;;5061748;28;20408;-84
2023/06/29 03:53:11;;;;;;;3.80;3.40;;;16.60;99.90;;;;;;5043820;28;20386;-84
2023/06/29 03:55:37;;;;;;;4.13;3.10;;;16.60;99.90;;;;;;5042742;28;20413;-84
2023/06/29 03:58:02;;;;;;;3.70;3.40;;;16.60;99.90;;;;;;5061448;28;20389;-84
2023/06/29 04:00:28;;;;;;;3.60;3.30;;;16.60;99.90;;;;;;5042222;28;20397;-84
2023/06/29 04:02:53;;;;;;;4.90;3.60;;;16.20;99.90;;;;;;5060874;28;20381;-84
2023/06/29 04:05:19;;;;;;;4.70;3.30;;;16.50;99.90;;;;;;5047964;28;20391;-84
2023/06/29 04:07:44;;;;;;;4.33;3.60;;;16.50;99.90;;;;;;5062032;28;20406;-84
2023/06/29 04:10:10;;;;;;;4.20;3.40;;;16.50;99.90;;;;;;5080439;28;20380;-84
2023/06/29 04:12:35;;;;;;;3.42;3.13;;;16.60;99.90;;;;;;5047341;28;20425;-84
2023/06/29 04:15:01;;;;;;;4.17;3.77;;;16.70;99.90;;;;;;5063355;28;20399;-84
2023/06/29 04:17:26;;;;;;;3.73;3.10;;;16.70;99.90;;;;;;5043250;28;20468;-84
2023/06/29 04:19:52;;;;;;;4.20;3.35;;;16.60;99.90;;;;;;5058242;28;20534;-84
2023/06/29 04:22:17;;;;;;;3.40;3.10;;;16.70;99.90;;;;;;5081324;28;20402;-84
2023/06/29 04:24:43;;;;;;;4.60;2.95;;;16.70;99.90;;;;;;5067184;28;20458;-84
2023/06/29 04:27:09;;;;;;;5.53;3.60;;;16.60;99.90;;;;;;5064581;28;20475;-84
2023/06/29 04:29:34;;;;;;;3.80;3.40;;;16.70;99.90;;;;;;5055254;28;20400;-85
2023/06/29 04:32:00;;;;;;;5.20;3.40;;;16.80;99.90;;;;;;5081336;28;20386;-84
2023/06/29 04:34:25;;;;;;;3.40;3.10;;;16.90;99.90;;;;;;5050605;28;20401;-84
2023/06/29 04:36:51;;;;;;;4.30;3.00;;;17.00;99.90;;;;;;5060938;28;20409;-84
2023/06/29 04:39:16;;;;;;;4.20;3.30;;;17.00;99.90;;;;;;5049459;28;20400;-84
2023/06/29 04:41:42;;;;;;;3.35;3.05;;;17.10;99.90;;;;;;5050467;28;20385;-85
2023/06/29 04:44:08;;;;;;;4.13;3.40;;;17.20;99.90;;;;;;5061906;28;20424;-84
2023/06/29 04:46:40;;;;;;;3.80;3.25;;;17.20;99.90;;;;;;5062575;28;20385;-84
2023/06/29 04:49:06;;;;;;;3.63;3.00;;;17.20;99.90;;;;;;5061411;28;20389;-84
2023/06/29 04:51:36;;;;;;;3.30;3.00;;;17.10;99.90;;;;;;5059437;28;20395;-85
2023/06/29 04:54:05;;;;;;;4.28;3.42;;;17.30;99.90;;;;;;5061817;28;20393;-84
2023/06/29 04:56:31;;;;;;;3.42;3.13;;;17.40;99.90;;;;;;5058135;28;20479;-84
2023/06/29 04:58:57;;;;;;;3.40;3.10;;;17.50;99.90;;;;;;5059516;28;20389;-84
2023/06/29 05:01:22;;;;;;;5.07;3.13;;;17.50;99.90;;;;;;5062012;28;20926;-84
2023/06/29 05:03:48;;;;;;;3.75;2.97;;;17.50;99.90;;;;;;5051371;28;20394;-85
2023/06/29 05:06:14;;;;;;;4.30;3.33;;;17.70;99.90;;;;;;5058413;28;20392;-85
2023/06/29 05:08:39;;;;;;;3.40;3.10;;;17.70;99.90;;;;;;5063053;28;20383;-84
2023/06/29 05:11:05;;;;;;;3.78;3.30;;;17.70;99.90;;;;;;5078421;28;20405;-85
2023/06/29 05:13:32;;;;;;;3.50;3.20;;;17.80;99.90;;;;;;5045381;28;20385;-85
2023/06/29 05:15:58;;;;;;;3.97;3.58;;;17.80;99.90;;;;;;5071187;28;20481;-84
2023/06/29 05:18:24;;;;;;;3.53;3.20;;;17.80;99.90;;;;;;5062512;28;20387;-85
2023/06/29 05:20:50;;;;;;;3.75;3.45;;;18.00;99.90;;;;;;5062095;28;20845;-84
2023/06/29 05:23:15;;;;;;;3.80;2.92;;;18.00;99.90;;;;;;5080750;28;20585;-85
2023/06/29 05:25:42;;;;;;;4.27;2.90;;;18.00;99.90;;;;;;5077349;28;20387;-84
2023/06/29 05:28:08;;;;;;;3.70;3.30;;;18.00;99.90;;;;;;5063779;28;20419;-85
2023/06/29 05:30:34;;;;;;;4.07;2.70;;;18.10;99.90;;;;;;5065431;28;20403;-83
2023/06/29 05:32:59;;;;;;;3.42;3.13;;;18.20;99.90;;;;;;5060157;28;20397;-83
2023/06/29 05:35:25;;;;;;;4.20;3.58;;;18.30;99.90;;;;;;5076850;28;20417;-83
2023/06/29 05:37:50;;;;;;;5.47;3.40;;;18.20;99.90;;;;;;5047100;28;20407;-83
2023/06/29 05:40:16;;;;;;;4.53;2.90;;;18.40;99.90;;;;;;5059725;28;20397;-83
2023/06/29 05:42:42;;;;;;;3.57;3.27;;;18.50;99.90;;;;;;5076882;28;20389;-82
2023/06/29 05:45:07;;;;;;;4.50;3.10;;;18.80;99.90;;;;;;5052109;28;20390;-83
2023/06/29 05:47:33;;;;;;;3.40;3.10;;;18.60;99.90;;;;;;5065620;28;20412;-82
2023/06/29 05:49:58;;;;;;;4.35;3.03;;;18.60;99.90;;;;;;5073286;28;20438;-82
2023/06/29 05:52:24;;;;;;;3.50;3.20;;;18.70;99.90;;;;;;5049138;28;20443;-83
2023/06/29 05:54:49;;;;;;;5.25;3.75;;;18.80;99.90;;;;;;5062055;28;20389;-83
2023/06/29 05:57:15;;;;;;;4.50;3.00;;;18.90;99.90;;;;;;5038908;28;20436;-83
2023/06/29 05:59:41;;;;;;;3.40;3.10;;;19.00;99.90;;;;;;5046701;28;20421;-82
2023/06/29 06:02:06;;;;;;;4.68;3.30;;;19.00;99.90;;;;;;5058874;28;20382;-82
2023/06/29 06:04:34;;;;;;;4.97;3.50;;;19.10;99.90;;;;;;5058482;28;20396;-82
2023/06/29 06:06:59;;;;;;;5.10;3.45;;;19.30;99.90;;;;;;5075513;28;20391;-81
2023/06/29 06:09:25;;;;;;;4.57;3.40;;;19.40;99.90;;;;;;5075816;28;20396;-82
2023/06/29 06:11:51;;;;;;;5.40;3.70;;;19.40;99.90;;;;;;5061180;28;20401;-83
2023/06/29 06:14:16;;;;;;;4.20;2.90;;;19.50;99.90;;;;;;5056776;28;20411;-83
2023/06/29 06:16:42;;;;;;;3.70;3.27;;;20.20;99.90;;;;;;5056118;28;20402;-82
2023/06/29 06:19:07;;;;;;;3.40;3.03;;;19.90;99.90;;;;;;5037862;28;20397;-82
2023/06/29 06:21:32;;;;;;;4.43;3.87;;;20.00;99.90;;;;;;5073577;28;20391;-82
2023/06/29 06:23:58;;;;;;;4.03;3.63;;;20.10;99.90;;;;;;5061195;28;20383;-82
2023/06/29 06:26:23;;;;;;;6.07;3.90;;;20.10;99.90;;;;;;5068201;28;20736;-82
2023/06/29 06:28:50;;;;;;;5.30;3.80;;;20.20;99.90;;;;;;5056677;28;20389;-82
2023/06/29 06:31:17;;;;;;;4.97;3.40;;;20.00;99.90;;;;;;5056978;28;20382;-83
2023/06/29 06:33:42;;;;;;;5.90;4.05;;;20.10;99.90;;;;;;5056372;28;20400;-82
2023/06/29 06:36:08;;;;;;;6.60;4.00;;;20.10;99.90;;;;;;5037871;28;20909;-83
2023/06/29 06:38:33;;;;;;;6.00;4.23;;;20.20;99.90;;;;;;5061516;28;20897;-83
2023/06/29 06:40:59;;;;;;;7.55;3.80;;;20.30;99.90;;;;;;5076824;28;20390;-83
2023/06/29 06:43:24;;;;;;;6.67;4.27;;;20.10;99.90;;;;;;5076673;28;20388;-83
2023/06/29 06:45:52;;;;;;;5.88;3.88;;;20.30;99.90;;;;;;5057426;28;20388;-84
2023/06/29 06:48:18;;;;;;;5.37;3.90;;;20.30;99.90;;;;;;5057753;28;20474;-83
2023/06/29 06:50:44;;;;;;;4.88;3.83;;;20.30;99.90;;;;;;5057446;28;20419;-82
2023/06/29 06:53:09;;;;;;;6.00;3.73;;;19.70;99.90;;;;;;5056176;28;20381;-82
2023/06/29 06:55:35;;;;;;;3.67;3.33;;;20.10;99.90;;;;;;5037087;28;20398;-83
2023/06/29 06:58:01;;;;;;;5.97;3.50;;;20.10;99.90;;;;;;5037036;28;20390;-83
2023/06/29 07:00:27;;;;;;;4.83;3.60;;;20.00;99.90;;;;;;5067358;28;20396;-83
2023/06/29 07:02:52;;;;;;;5.13;3.80;;;20.00;99.90;;;;;;5076650;28;20380;-83
2023/06/29 07:05:18;;;;;;;3.60;3.30;;;20.00;99.90;;;;;;5052159;28;20439;-83
2023/06/29 07:07:46;;;;;;;5.03;3.60;;;20.30;99.90;;;;;;5052267;28;20762;-84
2023/06/29 07:10:12;;;;;;;4.50;4.10;;;20.40;99.90;;;;;;5078287;28;20416;-82
2023/06/29 07:12:37;;;;;;;4.60;3.30;;;20.40;99.90;;;;;;5055514;28;20407;-84
2023/06/29 07:15:03;;;;;;;5.22;3.30;;;20.50;99.90;;;;;;5068736;28;20775;-83
2023/06/29 07:17:28;;;;;;;4.97;3.47;;;20.60;99.90;;;;;;5037195;28;20382;-83
2023/06/29 07:19:54;;;;;;;4.37;3.40;;;20.60;99.90;;;;;;5055774;28;20481;-84
2023/06/29 07:22:20;;;;;;;3.70;3.30;;;20.80;99.90;;;;;;5063566;28;20426;-83
2023/06/29 07:24:45;;;;;;;3.83;3.43;;;20.90;99.90;;;;;;5075206;28;20375;-83
2023/06/29 07:27:11;;;;;;;4.70;4.20;;;20.70;99.90;;;;;;5075298;28;20380;-84
2023/06/29 07:29:36;;;;;;;4.00;3.60;;;21.00;99.90;;;;;;5068805;28;20393;-82
2023/06/29 07:32:02;;;;;;;4.00;3.60;;;21.60;99.90;;;;;;5059988;28;20465;-84
2023/06/29 07:34:28;;;;;;;4.38;3.38;;;21.10;99.90;;;;;;5061997;28;20393;-82
2023/06/29 07:36:53;;;;;;;3.83;3.27;;;21.10;99.90;;;;;;5041596;28;20444;-83
2023/06/29 07:39:19;;;;;;;6.37;3.53;;;21.10;99.90;;;;;;5077224;28;20396;-82
2023/06/29 07:41:44;;;;;;;4.55;3.50;;;21.20;99.90;;;;;;5056414;28;20425;-82
2023/06/29 07:44:10;;;;;;;4.60;3.80;;;21.30;99.90;;;;;;5060863;28;20441;-82
2023/06/29 07:46:36;;;;;;;4.10;3.50;;;22.10;99.90;;;;;;5042514;28;20439;-82
2023/06/29 07:49:01;;;;;;;3.40;3.10;;;21.50;99.90;;;;;;5053101;28;20444;-82
2023/06/29 07:51:32;;;;;;;3.85;3.30;;;21.20;99.90;;;;;;5059532;28;20450;-81
2023/06/29 07:54:00;;;;;;;4.10;3.70;;;21.60;99.90;;;;;;5060254;28;20392;-82
2023/06/29 07:56:27;;;;;;;6.57;3.83;;;21.70;99.90;;;;;;5059669;28;20501;-82
2023/06/29 07:58:52;;;;;;;4.07;3.30;;;21.80;99.90;;;;;;5042223;28;20464;-82
2023/06/29 08:01:18;;;;;;;3.80;3.50;;;22.00;99.90;;;;;;5042587;28;20974;-82
2023/06/29 08:03:45;;;;;;;6.23;4.10;;;21.80;99.90;;;;;;5081089;28;20386;-81
2023/06/29 08:06:10;;;;;;;3.92;3.10;;;22.00;99.90;;;;;;5088445;28;20426;-82
2023/06/29 08:08:43;;;;;;;3.55;3.17;;;21.70;99.90;;;;;;5064379;28;20392;-81
2023/06/29 08:11:12;;;;;;;5.57;3.50;;;22.00;99.90;;;;;;5060468;28;20393;-82
2023/06/29 08:13:39;;;;;;;4.03;3.15;;;22.60;99.90;;;;;;5061165;28;20397;-83
2023/06/29 08:16:05;;;;;;;5.50;3.28;;;22.80;99.90;;;;;;5058727;28;20508;-82
2023/06/29 08:18:30;;;;;;;3.50;3.20;;;22.60;99.90;;;;;;5040941;28;20492;-82
2023/06/29 08:20:56;;;;;;;3.97;3.38;;;22.80;99.90;;;;;;5077245;28;20466;-82
2023/06/29 08:23:21;;;;;;;4.13;3.00;;;22.30;99.90;;;;;;5061127;28;20386;-81
2023/06/29 08:25:48;;;;;;;5.88;3.50;;;22.90;99.90;;;;;;5061922;28;20400;-83
2023/06/29 08:28:13;;;;;;;3.55;3.25;;;24.50;99.90;;;;;;5080520;28;20406;-83
2023/06/29 08:30:39;;;;;;;3.75;3.45;;;24.10;99.90;;;;;;5072700;28;20401;-81
2023/06/29 08:33:04;;;;;;;3.57;2.93;;;23.20;99.90;;;;;;5079622;28;20396;-82
2023/06/29 08:35:30;;;;;;;4.63;3.17;;;23.20;99.90;;;;;;5075629;28;20409;-83
2023/06/29 08:37:56;;;;;;;6.00;3.60;;;23.40;99.90;;;;;;5043879;28;20419;-81
2023/06/29 08:40:22;;;;;;;4.43;3.13;;;23.50;99.90;;;;;;5064120;28;20903;-83
2023/06/29 08:42:48;;;;;;;4.38;3.50;;;23.60;99.90;;;;;;5054828;28;20415;-82
2023/06/29 08:45:14;;;;;;;5.53;3.35;;;23.50;99.90;;;;;;5060554;28;20755;-84
2023/06/29 08:47:42;;;;;;;4.72;3.70;;;23.60;99.90;;;;;;5064013;28;20396;-83
2023/06/29 08:50:10;;;;;;;3.93;3.50;;;23.90;99.90;;;;;;5043375;28;20439;-84
2023/06/29 08:52:36;;;;;;;4.63;3.50;;;23.90;99.90;;;;;;5055119;28;20764;-84
2023/06/29 08:55:03;;;;;;;5.00;3.10;;;23.90;99.90;;;;;;5042247;28;20429;-84
2023/06/29 08:57:32;;;;;;;5.20;3.15;;;24.10;99.90;;;;;;5073822;28;20410;-83
2023/06/29 09:00:02;;;;;;;5.43;3.30;;;24.40;99.90;;;;;;5063466;28;20384;-84
2023/06/29 09:02:28;;;;;;;5.20;3.20;;;24.10;99.90;;;;;;5064483;28;20418;-84
2023/06/29 09:04:55;;;;;;;5.70;3.80;;;24.20;99.90;;;;;;5082986;28;20383;-84
2023/06/29 09:07:21;;;;;;;5.90;3.70;;;24.30;99.90;;;;;;5069129;28;20899;-84
2023/06/29 09:09:46;;;;;;;4.85;3.38;;;24.30;99.90;;;;;;5042951;28;20444;-84
2023/06/29 09:12:12;;;;;;;6.07;3.47;;;24.20;99.90;;;;;;5045677;28;20407;-85
2023/06/29 09:14:43;;;;;;;3.75;3.25;;;24.00;99.90;;;;;;5063867;28;20405;-83
2023/06/29 09:17:17;;;;;;;3.13;2.83;;;24.10;99.90;;;;;;5060272;28;20411;-84
2023/06/29 09:19:51;;;;;;;4.32;3.22;;;24.10;99.90;;;;;;5063249;28;20406;-84
2023/06/29 09:22:18;;;;;;;3.90;3.00;;;24.30;99.90;;;;;;5060910;28;20388;-84
2023/06/29 09:24:44;;;;;;;4.40;3.30;;;24.30;99.90;;;;;;5059721;28;20395;-84
2023/06/29 09:27:11;;;;;;;5.35;3.50;;;24.30;99.90;;;;;;5042531;28;20401;-86
2023/06/29 09:29:39;;;;;;;4.82;3.65;;;24.20;99.90;;;;;;5060724;28;20386;-82
2023/06/29 09:32:12;;;;;;;3.85;3.00;;;24.40;99.90;;;;;;5022368;28;20869;-84
2023/06/29 09:34:47;;;;;;;4.07;3.00;;;24.40;99.90;;;;;;5043082;28;20398;-84
2023/06/29 09:37:15;;;;;;;6.03;3.57;;;24.40;99.90;;;;;;5062906;28;20403;-85
2023/06/29 09:39:56;;;;;;;5.00;3.30;;;24.40;99.90;;;;;;5063310;28;20395;-83
2023/06/29 09:42:23;;;;;;;5.30;3.55;;;24.30;99.90;;;;;;5059757;28;20391;-82
2023/06/29 09:44:48;;;;;;;4.43;3.15;;;24.30;99.90;;;;;;5069308;28;21035;-82
2023/06/29 09:47:14;;;;;;;3.90;3.20;;;24.50;99.90;;;;;;5040929;28;20386;-82
2023/06/29 09:49:48;;;;;;;3.80;3.00;;;24.80;99.90;;;;;;5056550;28;20398;-81
2023/06/29 09:52:17;;;;;;;5.95;3.30;;;25.00;99.90;;;;;;5056030;28;20390;-82
2023/06/29 09:54:44;;;;;;;4.38;2.78;;;25.00;99.90;;;;;;5047813;28;20399;-81
2023/06/29 09:57:11;;;;;;;6.43;3.30;;;25.00;99.90;;;;;;5077346;28;20403;-82
2023/06/29 09:59:41;;;;;;;3.90;3.15;;;25.40;99.90;;;;;;5080164;28;20440;-83
2023/06/29 10:02:11;;;;;;;4.53;3.10;;;25.50;99.90;;;;;;5045071;28;20449;-83
2023/06/29 10:04:40;;;;;;;4.88;3.10;;;25.40;99.90;;;;;;5054615;28;20885;-84
2023/06/29 10:07:12;;;;;;;4.13;2.92;;;25.30;99.90;;;;;;5060739;28;20387;-84
2023/06/29 10:09:41;;;;;;;4.32;3.10;;;25.70;99.90;;;;;;5080816;28;20392;-84
2023/06/29 10:12:09;;;;;;;5.22;3.13;;;25.50;99.90;;;;;;5050978;28;20417;-82
2023/06/29 10:14:41;;;;;;;5.32;3.30;;;25.50;99.90;;;;;;5083626;28;20372;-82
2023/06/29 10:17:43;;;;;;;4.10;3.20;;;25.80;99.90;;;;;;5079238;28;20434;-82
2023/06/29 10:20:11;;;;;;;4.30;3.00;;;25.80;99.90;;;;;;5059181;28;20398;-83
2023/06/29 10:22:38;;;;;;;6.15;3.53;;;25.70;99.90;;;;;;5043865;28;20751;-83
2023/06/29 10:25:08;;;;;;;4.15;2.90;;;25.70;99.90;;;;;;5061205;28;20377;-83
2023/06/29 10:27:35;;;;;;;3.30;3.00;;;26.00;99.90;;;;;;5070175;28;20425;-83
2023/06/29 10:30:04;;;;;;;4.50;3.10;;;26.20;99.90;;;;;;5062196;28;20743;-82
2023/06/29 10:32:34;;;;;;;4.45;3.00;;;26.20;99.90;;;;;;5081023;28;20388;-80
2023/06/29 10:35:13;;;;;;;3.85;3.10;;;26.30;99.90;;;;;;5058631;28;20426;-83
2023/06/29 10:37:41;;;;;;;3.60;3.17;;;26.20;99.90;;;;;;5057599;28;20399;-79
2023/06/29 10:40:17;;;;;;;3.30;3.00;;;26.40;99.90;;;;;;5062491;28;20482;-81
2023/06/29 10:42:43;;;;;;;3.25;2.83;;;26.40;99.90;;;;;;5064875;28;20422;-79
2023/06/29 10:45:17;;;;;;;6.80;3.30;;;26.30;99.90;;;;;;5045601;28;20377;-82
2023/06/29 10:47:45;;;;;;;4.65;2.65;;;26.40;99.90;;;;;;5057389;28;20759;-78
2023/06/29 10:50:11;;;;;;;4.30;2.47;;;26.50;99.90;;;;;;5053821;28;20418;-83
2023/06/29 10:52:49;;;;;;;3.90;2.73;;;26.50;99.90;;;;;;5064882;28;20383;-81
2023/06/29 10:55:19;;;;;;;4.55;3.30;;;26.50;99.90;;;;;;5062667;28;20948;-81
2023/06/29 10:57:55;;;;;;;3.67;3.37;;;26.20;99.90;;;;;;5059662;28;20877;-80
2023/06/29 11:00:22;;;;;;;3.20;2.90;;;26.50;99.90;;;;;;5052935;28;20392;-79
2023/06/29 11:02:49;;;;;;;5.53;3.22;;;26.50;99.90;;;;;;5071474;28;20369;-78
2023/06/29 11:05:19;;;;;;;5.88;3.40;;;26.50;99.90;;;;;;5054079;28;20369;-79
2023/06/29 11:07:48;;;;;;;4.78;3.50;;;26.40;99.90;;;;;;5080097;28;20423;-79
2023/06/29 11:10:14;;;;;;;5.05;3.30;;;26.90;99.90;;;;;;5061706;28;20391;-80
2023/06/29 11:12:40;;;;;;;3.83;3.42;;;27.20;99.90;;;;;;5061367;28;20401;-80
2023/06/29 11:15:17;;;;;;;4.43;3.13;;;27.40;99.90;;;;;;5057728;28;20408;-80
2023/06/29 11:17:43;;;;;;;3.97;3.58;;;27.20;99.90;;;;;;5067585;28;20392;-81
2023/06/29 11:20:13;;;;;;;5.10;3.67;;;27.40;99.90;;;;;;5055894;28;20408;-78
2023/06/29 11:22:39;;;;;;;3.90;3.50;;;27.50;99.90;;;;;;5058179;28;20374;-82
2023/06/29 11:25:07;;;;;;;4.80;3.63;;;27.60;99.90;;;;;;5055568;28;20385;-83
2023/06/29 11:27:32;;;;;;;4.28;3.20;;;27.60;99.90;;;;;;5057868;28;20428;-84
2023/06/29 11:29:58;;;;;;;4.15;3.75;;;27.70;99.90;;;;;;5060282;28;20378;-83
2023/06/29 11:32:26;;;;;;;4.00;3.30;;;27.70;99.90;;;;;;5076640;28;20460;-84
2023/06/29 11:35:10;;;;;;;3.83;3.40;;;27.60;99.90;;;;;;5040886;28;20477;-83
2023/06/29 11:37:36;;;;;;;4.68;3.45;;;28.10;99.90;;;;;;5036885;28;20772;-82
2023/06/29 11:40:09;;;;;;;4.35;3.50;;;27.60;99.90;;;;;;5048067;28;20443;-83
2023/06/29 11:42:36;;;;;;;4.23;3.30;;;27.60;99.90;;;;;;5056771;28;20395;-83
2023/06/29 11:45:02;;;;;;;5.53;3.33;;;27.70;99.90;;;;;;5058327;28;20411;-82
2023/06/29 11:47:28;;;;;;;3.95;3.50;;;27.90;99.90;;;;;;5053017;28;20384;-83
2023/06/29 11:49:57;;;;;;;5.40;3.00;;;28.10;99.90;;;;;;5058448;28;20405;-83
2023/06/29 11:52:23;;;;;;;4.20;3.30;;;27.80;99.90;;;;;;5075859;28;20383;-83
2023/06/29 11:54:49;;;;;;;3.50;3.20;;;27.80;99.90;;;;;;5076127;28;20375;-83
2023/06/29 11:57:17;;;;;;;3.80;3.10;;;27.60;99.90;;;;;;5082672;28;20434;-82
2023/06/29 11:59:45;;;;;;;5.30;3.47;;;27.60;99.90;;;;;;5083002;28;20447;-83
2023/06/29 12:02:10;;;;;;;3.60;3.10;;;27.60;99.90;;;;;;5067744;28;20401;-83
2023/06/29 12:04:36;;;;;;;5.57;3.23;;;27.60;99.90;;;;;;5039692;28;20383;-83
2023/06/29 12:07:02;;;;;;;3.40;2.80;;;27.50;99.90;;;;;;5040180;28;20401;-83
2023/06/29 12:09:30;;;;;;;5.15;2.95;;;27.10;99.90;;;;;;5043413;28;20887;-83
2023/06/29 12:12:00;;;;;;;4.18;3.50;;;27.30;99.90;;;;;;5042552;28;20447;-82
2023/06/29 12:14:32;;;;;;;5.35;3.25;;;27.60;99.90;;;;;;5061372;28;20392;-83
2023/06/29 12:17:00;;;;;;;4.07;3.38;;;27.50;99.90;;;;;;5059350;28;20933;-83
2023/06/29 12:19:36;;;;;;;3.72;3.25;;;27.60;99.90;;;;;;5058512;28;20393;-84
2023/06/29 12:22:04;;;;;;;4.97;3.93;;;27.60;99.90;;;;;;5041830;28;20891;-83
2023/06/29 12:24:30;;;;;;;4.53;3.60;;;27.70;99.90;;;;;;5062541;28;20860;-84
2023/06/29 12:26:55;;;;;;;5.70;3.77;;;27.40;99.90;;;;;;5063561;28;20396;-83
2023/06/29 12:29:21;;;;;;;5.75;3.60;;;27.20;99.90;;;;;;5065435;28;20395;-83
2023/06/29 12:31:46;;;;;;;4.73;3.47;;;27.20;99.90;;;;;;5065859;28;20463;-82
2023/06/29 12:34:15;;;;;;;4.93;3.50;;;27.10;99.90;;;;;;5084726;28;20406;-82
2023/06/29 12:36:41;;;;;;;4.35;3.90;;;27.30;99.90;;;;;;5070616;28;20475;-84
2023/06/29 12:39:06;;;;;;;4.27;3.40;;;27.40;99.90;;;;;;5080773;28;20522;-84
2023/06/29 12:41:32;;;;;;;5.75;3.80;;;27.00;99.90;;;;;;5061061;28;20376;-84
2023/06/29 12:43:57;;;;;;;4.70;3.60;;;27.10;99.90;;;;;;5082574;28;20443;-82
2023/06/29 12:46:27;;;;;;;5.60;3.60;;;27.00;99.90;;;;;;5061625;28;20395;-81